• Join FlightAware (Why Join?)
  • Login
  • US Flag 
Rudolph Flight #1: Arrived! 
10:43AM EST


 

Airport Tracker/Info


-or-


 

Live Flight TrackerFlight Track Log ✈ RAX81 ✈ 13-May-2013 ✈ KPHL - KTEB

Flight Track Log - Related Links

Times and Time Zones

All times are in EDT time to prevent confusion due to time zone crossing. See the RAX81 flight status page for this flight to view local times or setup timezone preferences in your user account.

Time Position Orientation Groundspeed Altitude Reporting Facility
EDT Latitude Longitude Course Direction KTS MPH feet Rate Location/Type
04:32AM 39.8833 -75.3000 303° West 138 159 3,200  Level Philadelphia TRACON
04:33AM 39.9167 -75.2667 37° Northeast 153 176 4,900 900 Climbing Philadelphia TRACON
04:34AM 39.9667 -75.2167 37° Northeast 223 257 5,000  Climbing Philadelphia TRACON
04:35AM 40.0167 -75.1833 27° Northeast 228 262 5,000  Level Philadelphia TRACON
04:36AM 40.0667 -75.1333 37° Northeast 227 261 5,000  Level Philadelphia TRACON
04:37AM 40.1333 -75.1000 21° North 225 259 5,000  Level Philadelphia TRACON
04:38AM 40.1833 -75.0500 37° Northeast 223 257 5,000  Level Philadelphia TRACON
04:39AM 40.2333 -75.0000 37° Northeast 221 254 5,000  Level New York TRACON
04:40AM 40.3000 -74.9667 21° North 228 262 5,000  Level New York TRACON
04:41AM 40.3333 -74.9000 57° Northeast 236 272 5,000  Level New York TRACON
04:42AM 40.3833 -74.8333 45° Northeast 236 272 5,000  Level New York TRACON
04:43AM 40.4167 -74.7667 57° Northeast 238 274 5,000  Level New York TRACON
04:44AM 40.4500 -74.7000 57° Northeast 236 272 5,000  Level New York TRACON
04:45AM 40.5000 -74.6333 45° Northeast 235 270 5,000  Level New York TRACON
04:46AM 40.5333 -74.5667 57° Northeast 234 269 5,000 -120 Level New York TRACON
04:47AM 40.5833 -74.5000 45° Northeast 237 273 4,800 -300 Descending New York TRACON
04:48AM 40.6167 -74.4333 57° Northeast 235 270 4,400 -540 Descending New York TRACON
04:49AM 40.6667 -74.3667 45° Northeast 234 269 3,800 -720 Descending New York TRACON
04:50AM 40.7000 -74.3000 57° Northeast 232 267 3,000 -780 Descending New York TRACON
04:51AM 40.7500 -74.2333 45° Northeast 233 268 2,200 -600 Descending New York TRACON
04:52AM 40.8000 -74.1833 37° Northeast 225 259 1,800 -420 Descending New York TRACON
04:53AM 40.8500 -74.1333 37° Northeast 194 223 1,400 -420 Descending New York TRACON
04:54AM 40.8667 -74.0833 66° East 149 171 1,000 -420 Descending New York TRACON
04:55AM 40.8667 -74.0667 90° East 153 176 600 -420 Descending New York TRACON
04:57AM 40.8500 -74.0500 57° Northeast  Level FlightAware Approximate
05:04AM 40.8501 -74.0608 57° Northeast  Level Estimated
05:05AM 40.8501 -74.0608 57° Northeast  Level Estimated